Time;durP1;ratioP1;P1;durP2;ratioP2;P2;SDS_P1;SDS_P2;PMS_P1;PMS_P2;Temp;Humidity;BMP_temperature;BMP_pressure;BME280_temperature;BME280_humidity;BME280_pressure;Samples;Min_cycle;Max_cycle;Signal;HPM_P1;HPM_P2
2023/08/23 00:01:58;;;;;;;4.10;2.97;;;14.50;99.90;;;;;;5020142;28;20442;-73
2023/08/23 00:04:23;;;;;;;8.27;3.45;;;14.50;99.90;;;;;;5039667;28;20029;-72
2023/08/23 00:06:49;;;;;;;5.63;3.10;;;14.40;99.90;;;;;;5040571;28;20044;-72
2023/08/23 00:09:16;;;;;;;6.18;3.00;;;14.40;99.90;;;;;;5026293;28;20200;-72
2023/08/23 00:11:42;;;;;;;6.57;3.30;;;14.40;99.90;;;;;;5017759;28;20021;-71
2023/08/23 00:14:08;;;;;;;7.57;3.53;;;14.40;99.90;;;;;;5033660;28;20354;-72
2023/08/23 00:16:33;;;;;;;7.70;2.97;;;14.40;99.90;;;;;;5038479;28;20489;-73
2023/08/23 00:18:59;;;;;;;5.85;3.15;;;14.30;99.90;;;;;;5040295;28;20044;-72
2023/08/23 00:21:24;;;;;;;5.90;2.92;;;14.30;99.90;;;;;;5039924;28;20029;-72
2023/08/23 00:23:50;;;;;;;14.52;7.43;;;14.30;99.90;;;;;;5036620;28;20028;-73
2023/08/23 00:26:16;;;;;;;11.40;4.72;;;14.30;99.90;;;;;;5037572;28;20033;-72
2023/08/23 00:28:42;;;;;;;8.90;3.97;;;14.30;99.90;;;;;;5012869;28;20033;-72
2023/08/23 00:31:08;;;;;;;8.80;4.07;;;14.20;99.90;;;;;;5035321;28;20407;-72
2023/08/23 00:33:34;;;;;;;8.70;3.22;;;14.20;99.90;;;;;;5038367;28;20384;-72
2023/08/23 00:35:59;;;;;;;5.80;3.10;;;14.20;99.90;;;;;;5039853;28;20028;-73
2023/08/23 00:38:25;;;;;;;6.35;2.60;;;14.20;99.90;;;;;;5021740;28;20518;-72
2023/08/23 00:40:51;;;;;;;5.10;2.63;;;14.10;99.90;;;;;;5040171;28;20291;-72
2023/08/23 00:43:16;;;;;;;5.45;2.15;;;14.10;99.90;;;;;;5017192;28;20078;-72
2023/08/23 00:45:42;;;;;;;5.00;2.90;;;14.10;99.90;;;;;;5037366;28;20068;-73
2023/08/23 00:48:10;;;;;;;5.20;2.47;;;14.10;99.90;;;;;;5035337;28;20476;-73
2023/08/23 00:50:38;;;;;;;5.72;2.38;;;14.10;99.90;;;;;;5036674;28;20119;-72
2023/08/23 00:53:05;;;;;;;8.57;3.00;;;14.00;99.90;;;;;;5038270;28;20463;-72
2023/08/23 00:55:30;;;;;;;5.72;3.03;;;14.10;99.90;;;;;;5039974;28;20044;-72
2023/08/23 00:57:57;;;;;;;5.00;3.17;;;14.00;99.90;;;;;;5038234;28;20513;-73
2023/08/23 01:00:23;;;;;;;5.32;3.05;;;14.00;99.90;;;;;;5037566;28;20075;-72
2023/08/23 01:02:49;;;;;;;4.80;2.65;;;14.00;99.90;;;;;;5037108;28;20111;-72
2023/08/23 01:05:15;;;;;;;6.07;3.03;;;14.00;99.90;;;;;;5035981;28;20033;-72
2023/08/23 01:08:02;;;;;;;3.97;2.60;;;14.00;99.90;;;;;;5033206;28;20036;-72
2023/08/23 01:10:45;;;;;;;4.28;3.00;;;14.00;99.90;;;;;;5039066;28;20130;-71
2023/08/23 01:13:51;;;;;;;6.13;3.35;;;14.00;99.90;;;;;;5034073;28;20021;-72
2023/08/23 01:16:20;;;;;;;4.28;3.10;;;14.00;99.90;;;;;;5033100;28;20555;-72
2023/08/23 01:18:46;;;;;;;6.80;3.13;;;14.00;99.90;;;;;;5021541;28;20083;-72
2023/08/23 01:21:16;;;;;;;11.02;3.55;;;14.00;99.90;;;;;;5039055;28;20108;-72
2023/08/23 01:23:42;;;;;;;6.40;2.95;;;14.00;99.90;;;;;;5036990;28;21013;-72
2023/08/23 01:26:07;;;;;;;6.45;3.55;;;14.00;99.90;;;;;;5038937;28;20055;-72
2023/08/23 01:28:33;;;;;;;8.88;3.42;;;14.00;99.90;;;;;;5035488;28;20032;-72
2023/08/23 01:31:03;;;;;;;6.75;3.60;;;14.10;99.90;;;;;;5037213;28;20037;-72
2023/08/23 01:33:55;;;;;;;6.90;3.58;;;14.10;99.90;;;;;;5035932;28;20071;-72
2023/08/23 01:36:24;;;;;;;7.40;3.33;;;14.20;99.90;;;;;;5024293;28;20048;-72
2023/08/23 01:38:52;;;;;;;6.13;3.80;;;14.20;99.90;;;;;;5037528;28;20049;-73
2023/08/23 01:41:18;;;;;;;6.88;3.30;;;14.30;99.90;;;;;;5037549;28;20033;-72
2023/08/23 01:43:47;;;;;;;8.05;4.00;;;14.30;99.90;;;;;;5035482;28;20106;-72
2023/08/23 01:46:13;;;;;;;4.70;3.50;;;14.40;99.90;;;;;;5036299;28;20102;-72
2023/08/23 01:48:39;;;;;;;8.05;3.72;;;14.50;99.90;;;;;;5040523;28;20029;-73
2023/08/23 01:51:05;;;;;;;6.15;3.90;;;14.50;99.90;;;;;;5029489;28;20026;-73
2023/08/23 01:53:31;;;;;;;6.20;3.45;;;14.60;99.90;;;;;;5015635;28;20095;-73
2023/08/23 01:55:56;;;;;;;6.85;3.78;;;14.60;99.90;;;;;;5022742;28;20060;-72
2023/08/23 01:58:25;;;;;;;5.30;3.63;;;14.70;99.90;;;;;;5027563;28;20061;-72
2023/08/23 02:00:51;;;;;;;5.38;3.53;;;14.70;99.90;;;;;;5021004;28;20049;-72
2023/08/23 02:03:17;;;;;;;8.00;3.90;;;14.70;99.90;;;;;;5019828;28;20372;-72
2023/08/23 02:05:43;;;;;;;9.05;4.45;;;14.80;99.90;;;;;;5037803;28;20013;-73
2023/08/23 02:08:09;;;;;;;4.90;3.95;;;14.80;99.90;;;;;;5015841;28;20083;-72
2023/08/23 02:10:35;;;;;;;6.07;3.95;;;14.80;99.90;;;;;;5016960;28;20383;-72
2023/08/23 02:13:04;;;;;;;6.10;3.85;;;14.90;99.90;;;;;;5021670;28;20083;-72
2023/08/23 02:15:30;;;;;;;6.70;3.80;;;14.90;99.90;;;;;;5011110;28;20534;-72
2023/08/23 02:17:55;;;;;;;7.40;3.75;;;14.90;99.90;;;;;;5023383;28;20041;-73
2023/08/23 02:20:21;;;;;;;7.13;4.05;;;15.00;99.90;;;;;;5037376;28;20296;-72
2023/08/23 02:22:47;;;;;;;4.65;3.30;;;15.00;99.90;;;;;;5037156;28;20029;-73
2023/08/23 02:25:12;;;;;;;6.90;3.22;;;15.00;99.90;;;;;;5030990;28;20147;-72
2023/08/23 02:27:38;;;;;;;7.13;3.70;;;15.00;99.90;;;;;;5023323;28;20028;-72
2023/08/23 02:30:04;;;;;;;5.20;3.40;;;15.10;99.90;;;;;;5035887;28;20035;-72
2023/08/23 02:32:30;;;;;;;5.80;3.53;;;15.10;99.90;;;;;;5036135;28;20163;-72
2023/08/23 02:34:55;;;;;;;4.47;3.30;;;15.10;99.90;;;;;;5021663;28;20120;-71
2023/08/23 02:37:21;;;;;;;8.02;3.55;;;15.10;99.90;;;;;;5016828;28;20423;-72
2023/08/23 02:39:47;;;;;;;6.20;3.17;;;15.20;99.90;;;;;;5009810;28;20055;-72
2023/08/23 02:42:12;;;;;;;4.57;3.45;;;15.10;99.90;;;;;;5023003;28;20032;-72
2023/08/23 02:44:38;;;;;;;7.18;3.30;;;15.10;99.90;;;;;;5035414;28;20112;-73
2023/08/23 02:47:03;;;;;;;9.15;3.85;;;15.10;99.90;;;;;;5035199;28;20064;-72
2023/08/23 02:49:29;;;;;;;9.50;3.70;;;15.00;99.90;;;;;;5033704;28;20036;-72
2023/08/23 02:51:55;;;;;;;4.97;3.10;;;14.90;99.90;;;;;;5016033;28;20421;-72
2023/08/23 02:54:20;;;;;;;6.03;3.33;;;14.90;99.90;;;;;;5032997;28;20063;-73
2023/08/23 02:56:46;;;;;;;6.68;3.42;;;14.90;99.90;;;;;;5036377;28;20025;-71
2023/08/23 02:59:11;;;;;;;7.60;3.08;;;14.90;99.90;;;;;;5035777;28;20041;-72
2023/08/23 03:01:37;;;;;;;6.38;3.58;;;14.90;99.90;;;;;;5036586;28;20167;-72
2023/08/23 03:04:03;;;;;;;4.65;3.35;;;14.90;99.90;;;;;;5035917;28;20021;-72
2023/08/23 03:06:28;;;;;;;8.07;3.72;;;14.90;99.90;;;;;;5036046;28;20052;-72
2023/08/23 03:08:54;;;;;;;5.82;3.33;;;14.90;99.90;;;;;;5026566;28;20040;-72
2023/08/23 03:11:19;;;;;;;7.93;3.40;;;14.90;99.90;;;;;;5017322;28;20602;-73
2023/08/23 03:13:45;;;;;;;7.35;4.07;;;15.00;99.90;;;;;;5032617;28;20021;-72
2023/08/23 03:16:11;;;;;;;7.00;3.80;;;15.00;99.90;;;;;;5035954;28;20083;-72
2023/08/23 03:18:36;;;;;;;6.68;3.72;;;15.00;99.90;;;;;;5036970;28;20053;-72
2023/08/23 03:21:02;;;;;;;6.78;3.50;;;14.90;99.90;;;;;;5036923;28;20028;-72
2023/08/23 03:23:27;;;;;;;5.75;3.47;;;14.90;99.90;;;;;;5031124;28;20504;-72
2023/08/23 03:25:53;;;;;;;4.35;3.08;;;14.90;99.90;;;;;;5018509;28;20029;-72
2023/08/23 03:28:19;;;;;;;4.32;2.90;;;14.90;99.90;;;;;;5026664;28;20380;-72
2023/08/23 03:30:44;;;;;;;6.28;3.22;;;14.80;99.90;;;;;;5032403;28;20041;-72
2023/08/23 03:33:10;;;;;;;5.15;3.33;;;14.80;99.90;;;;;;5028960;28;20335;-72
2023/08/23 03:35:36;;;;;;;5.47;3.13;;;14.70;99.90;;;;;;5035770;28;20048;-73
2023/08/23 03:38:01;;;;;;;6.88;3.35;;;14.70;99.90;;;;;;5028421;28;20044;-71
2023/08/23 03:40:27;;;;;;;9.15;3.33;;;14.60;99.90;;;;;;5036928;28;20458;-73
2023/08/23 03:42:53;;;;;;;6.03;3.15;;;14.70;99.90;;;;;;5010096;28;20037;-72
2023/08/23 03:45:18;;;;;;;5.13;3.50;;;14.60;99.90;;;;;;5032669;28;20032;-72
2023/08/23 03:47:44;;;;;;;7.75;3.47;;;14.70;99.90;;;;;;5034857;28;20075;-72
2023/08/23 03:50:11;;;;;;;5.00;3.00;;;14.70;99.90;;;;;;5035055;28;20017;-72
2023/08/23 03:52:37;;;;;;;6.53;3.30;;;14.70;99.90;;;;;;5018919;28;20342;-72
2023/08/23 03:55:03;;;;;;;7.70;3.58;;;14.80;99.90;;;;;;5025222;28;20040;-72
2023/08/23 03:57:29;;;;;;;6.22;3.50;;;14.80;99.90;;;;;;5036819;28;20013;-72
2023/08/23 03:59:54;;;;;;;5.30;3.22;;;14.80;99.90;;;;;;5025446;28;20047;-73
2023/08/23 04:02:20;;;;;;;8.25;3.60;;;14.90;99.90;;;;;;5026961;28;20030;-72
2023/08/23 04:04:46;;;;;;;6.40;3.63;;;14.90;99.90;;;;;;5028415;28;20055;-72
2023/08/23 04:07:13;;;;;;;6.20;3.10;;;14.90;99.90;;;;;;5026348;28;20485;-72
2023/08/23 04:09:39;;;;;;;6.30;3.13;;;15.00;99.90;;;;;;5031723;28;20068;-72
2023/08/23 04:12:04;;;;;;;8.00;3.45;;;15.00;99.90;;;;;;5034792;28;20104;-72
2023/08/23 04:14:30;;;;;;;6.53;3.22;;;15.00;99.90;;;;;;5035343;28;20033;-73
2023/08/23 04:16:56;;;;;;;5.20;3.08;;;15.00;99.90;;;;;;5034564;28;20063;-72
2023/08/23 04:19:21;;;;;;;5.55;3.00;;;15.10;99.90;;;;;;5029830;28;20039;-73
2023/08/23 04:21:47;;;;;;;7.32;3.20;;;15.00;99.90;;;;;;5033147;28;20267;-72
2023/08/23 04:24:12;;;;;;;6.30;2.83;;;15.00;99.90;;;;;;5040245;28;20033;-72
2023/08/23 04:26:38;;;;;;;5.57;2.85;;;15.00;99.90;;;;;;5030249;28;20480;-72
2023/08/23 04:29:04;;;;;;;6.28;3.13;;;14.90;99.90;;;;;;5038394;28;20389;-72
2023/08/23 04:31:30;;;;;;;4.68;2.80;;;14.80;99.90;;;;;;5037620;28;20040;-72
2023/08/23 04:33:56;;;;;;;5.15;2.90;;;14.80;99.90;;;;;;5036192;28;20065;-72
2023/08/23 04:36:21;;;;;;;6.97;2.95;;;14.80;99.90;;;;;;5036900;28;20108;-73
2023/08/23 04:38:47;;;;;;;8.13;3.03;;;14.80;99.90;;;;;;5040311;28;20049;-72
2023/08/23 04:41:13;;;;;;;6.47;3.25;;;14.70;99.90;;;;;;5038890;28;20025;-71
2023/08/23 04:43:38;;;;;;;5.05;3.13;;;14.70;99.90;;;;;;5005925;28;20033;-71
2023/08/23 04:46:06;;;;;;;5.38;3.05;;;14.70;99.90;;;;;;5035209;28;20047;-73
2023/08/23 04:48:32;;;;;;;8.10;3.05;;;14.70;99.90;;;;;;5039291;28;20200;-72
2023/08/23 04:50:58;;;;;;;7.05;3.35;;;14.70;99.90;;;;;;5028005;28;20067;-72
2023/08/23 04:53:24;;;;;;;7.80;3.72;;;14.60;99.90;;;;;;5023636;28;20040;-73
2023/08/23 04:55:50;;;;;;;4.72;2.80;;;14.60;99.90;;;;;;5021390;28;20637;-72
2023/08/23 04:58:16;;;;;;;6.28;2.95;;;14.60;99.90;;;;;;5031744;28;20116;-72
2023/08/23 05:00:44;;;;;;;7.32;2.92;;;14.60;99.90;;;;;;5018173;28;20036;-73
2023/08/23 05:03:09;;;;;;;5.97;3.20;;;14.60;99.90;;;;;;5034067;28;20013;-72
2023/08/23 05:05:35;;;;;;;9.73;3.88;;;14.60;99.90;;;;;;5035463;28;20467;-72
2023/08/23 05:08:01;;;;;;;5.47;2.88;;;14.60;99.90;;;;;;5015823;28;20055;-72
2023/08/23 05:10:27;;;;;;;6.97;2.92;;;14.70;99.90;;;;;;5019274;28;20471;-72
2023/08/23 05:12:55;;;;;;;5.55;2.95;;;14.60;99.90;;;;;;5036961;28;20025;-72
2023/08/23 05:15:22;;;;;;;7.85;3.28;;;14.60;99.90;;;;;;5038123;28;20767;-72
2023/08/23 05:17:47;;;;;;;7.30;3.08;;;14.60;99.90;;;;;;5033148;28;20036;-72
2023/08/23 05:20:14;;;;;;;5.60;3.20;;;14.60;99.90;;;;;;5033364;28;20028;-72
2023/08/23 05:22:40;;;;;;;8.10;3.38;;;14.50;99.90;;;;;;5038486;28;20033;-72
2023/08/23 05:25:06;;;;;;;8.30;3.17;;;14.50;99.90;;;;;;5040049;28;20037;-72
2023/08/23 05:27:31;;;;;;;4.55;3.08;;;14.50;99.90;;;;;;5011949;28;20053;-72
2023/08/23 05:29:59;;;;;;;6.55;3.47;;;14.50;99.90;;;;;;5024115;28;20427;-72
2023/08/23 05:32:25;;;;;;;6.90;2.92;;;14.50;99.90;;;;;;5018327;28;20391;-72
2023/08/23 05:34:51;;;;;;;4.68;3.05;;;14.50;99.90;;;;;;5017070;28;20040;-72
2023/08/23 05:37:19;;;;;;;6.25;3.25;;;14.50;99.90;;;;;;5026606;28;20520;-72
2023/08/23 05:39:45;;;;;;;6.35;3.70;;;14.50;99.90;;;;;;5018682;28;20143;-72
2023/08/23 05:42:10;;;;;;;5.40;2.72;;;14.50;99.90;;;;;;5034993;28;20464;-72
2023/08/23 05:44:36;;;;;;;9.75;3.00;;;14.50;99.90;;;;;;5036787;28;20032;-72
2023/08/23 05:47:02;;;;;;;5.25;3.08;;;14.50;99.90;;;;;;5037835;28;20447;-72
2023/08/23 05:49:27;;;;;;;7.53;2.97;;;14.50;99.90;;;;;;5037203;28;20427;-73
2023/08/23 05:51:53;;;;;;;5.18;3.17;;;14.50;99.90;;;;;;5019749;28;20025;-72
2023/08/23 05:54:19;;;;;;;6.13;3.20;;;14.50;99.90;;;;;;5030949;28;20063;-72
2023/08/23 05:56:45;;;;;;;7.55;3.55;;;14.60;99.90;;;;;;5024099;28;20473;-73
2023/08/23 05:59:10;;;;;;;9.13;3.08;;;14.70;99.90;;;;;;5030921;28;20040;-72
2023/08/23 06:01:36;;;;;;;6.28;3.40;;;14.60;99.90;;;;;;5027593;28;20029;-73
2023/08/23 06:04:02;;;;;;;6.93;3.28;;;14.70;99.90;;;;;;5021687;28;20160;-72
2023/08/23 06:06:27;;;;;;;7.55;3.42;;;14.80;99.90;;;;;;5017475;28;20025;-72
2023/08/23 06:08:53;;;;;;;7.05;3.65;;;14.80;99.90;;;;;;5022414;28;20076;-72
2023/08/23 06:11:18;;;;;;;13.13;4.80;;;14.90;99.90;;;;;;5030754;28;20512;-72
2023/08/23 06:13:44;;;;;;;12.45;3.75;;;15.00;99.90;;;;;;5035273;28;20086;-72
2023/08/23 06:16:10;;;;;;;6.72;3.40;;;15.10;99.90;;;;;;5036594;23;21050;-86
2023/08/23 06:18:35;;;;;;;6.85;3.13;;;15.10;99.90;;;;;;4943649;28;20138;-87
2023/08/23 06:21:01;;;;;;;4.78;2.95;;;15.20;99.90;;;;;;4975404;28;20027;-87
2023/08/23 06:23:27;;;;;;;8.35;3.40;;;15.30;99.90;;;;;;4938342;29;20031;-86
2023/08/23 06:25:59;;;;;;;6.00;2.92;;;15.40;99.90;;;;;;4956182;28;20331;-86
2023/08/23 06:28:24;;;;;;;10.10;5.30;;;15.50;99.90;;;;;;4959475;28;20030;-86
2023/08/23 06:30:50;;;;;;;8.00;3.08;;;15.50;99.90;;;;;;4961111;28;20752;-88
2023/08/23 06:33:16;;;;;;;6.68;3.38;;;15.60;99.90;;;;;;4954382;28;20077;-86
2023/08/23 06:35:41;;;;;;;7.80;2.80;;;15.70;99.90;;;;;;4946018;28;20035;-86
2023/08/23 06:38:07;;;;;;;6.30;2.78;;;15.70;99.90;;;;;;4950908;28;20038;-87
2023/08/23 06:40:33;;;;;;;7.53;3.10;;;15.80;99.90;;;;;;4962514;28;20042;-87
2023/08/23 06:42:59;;;;;;;654.75;439.45;;;15.90;99.90;;;;;;4960814;28;20026;-87
2023/08/23 06:45:24;;;;;;;98.88;52.60;;;15.90;99.90;;;;;;4964738;28;20328;-88
2023/08/23 06:47:50;;;;;;;14.32;7.30;;;16.00;99.90;;;;;;4958928;28;20027;-88
2023/08/23 06:50:15;;;;;;;5.15;3.15;;;16.10;99.90;;;;;;4960741;28;20086;-86
2023/08/23 06:52:41;;;;;;;7.13;2.70;;;16.20;99.90;;;;;;4961399;28;20108;-87
2023/08/23 06:55:07;;;;;;;8.07;2.70;;;16.30;99.90;;;;;;4963567;28;20126;-87
2023/08/23 06:57:33;;;;;;;6.05;2.97;;;16.30;99.90;;;;;;4948477;28;20492;-86
2023/08/23 06:59:59;;;;;;;306.23;165.30;;;16.40;99.90;;;;;;4965294;28;20093;-85
2023/08/23 07:02:25;;;;;;;57.85;31.83;;;16.50;99.90;;;;;;4963322;28;20072;-85
2023/08/23 07:04:52;;;;;;;8.52;4.95;;;16.60;99.90;;;;;;4942509;28;20073;-86
2023/08/23 07:07:19;;;;;;;6.40;3.22;;;16.70;99.90;;;;;;4963149;28;20070;-87
2023/08/23 07:09:45;;;;;;;4.20;2.20;;;16.80;99.90;;;;;;4953280;28;20093;-85
2023/08/23 07:12:11;;;;;;;3.45;2.22;;;16.90;99.90;;;;;;4950603;28;20030;-85
2023/08/23 07:14:36;;;;;;;4.75;2.60;;;17.00;99.90;;;;;;4964566;28;20035;-85
2023/08/23 07:17:02;;;;;;;11.60;2.80;;;17.10;99.90;;;;;;4957110;28;20842;-84
2023/08/23 07:19:28;;;;;;;3.55;2.50;;;17.20;99.90;;;;;;4957930;28;20043;-85
2023/08/23 07:21:53;;;;;;;10.80;2.78;;;17.30;99.90;;;;;;4963777;28;20041;-85
2023/08/23 07:24:19;;;;;;;5.85;2.80;;;17.30;99.90;;;;;;4947745;28;20034;-85
2023/08/23 07:26:44;;;;;;;7.10;3.00;;;17.40;99.90;;;;;;4968292;28;20031;-86
2023/08/23 07:29:15;;;;;;;9.45;2.72;;;17.60;99.90;;;;;;4968772;28;20031;-87
2023/08/23 07:31:41;;;;;;;4.53;2.47;;;17.90;99.90;;;;;;4955869;28;20122;-86
2023/08/23 07:34:07;;;;;;;6.63;2.55;;;18.10;99.90;;;;;;4958590;28;20035;-85
2023/08/23 07:36:32;;;;;;;4.85;2.00;;;18.20;99.90;;;;;;4939357;28;20045;-84
2023/08/23 07:38:58;;;;;;;7.57;2.22;;;18.30;99.90;;;;;;4965097;28;20120;-85
2023/08/23 07:41:24;;;;;;;5.10;1.90;;;18.50;99.90;;;;;;4962605;28;20065;-88
2023/08/23 07:43:49;;;;;;;7.20;2.10;;;18.50;99.90;;;;;;4948738;28;20035;-86
2023/08/23 07:46:15;;;;;;;4.63;2.70;;;18.60;99.90;;;;;;4957774;28;20037;-87
2023/08/23 07:48:41;;;;;;;7.97;3.00;;;18.90;99.90;;;;;;4956420;28;20066;-84
2023/08/23 07:51:07;;;;;;;6.82;1.98;;;19.90;99.90;;;;;;4956733;28;20093;-85
2023/08/23 07:53:33;;;;;;;7.15;2.00;;;21.50;99.90;;;;;;4957883;28;20030;-85
2023/08/23 07:55:59;;;;;;;7.35;2.10;;;24.50;99.90;;;;;;4958551;28;20050;-85
2023/08/23 07:58:24;;;;;;;13.95;2.55;;;28.20;99.90;;;;;;4954074;28;20563;-85
2023/08/23 08:00:51;;;;;;;12.52;1.73;;;31.10;93.40;;;;;;4967770;28;20042;-83
2023/08/23 08:03:17;;;;;;;4.18;1.42;;;33.50;78.70;;;;;;4957426;28;20035;-84
2023/08/23 08:05:43;;;;;;;3.65;1.20;;;35.70;67.10;;;;;;4953997;28;20530;-85
2023/08/23 08:08:08;;;;;;;4.60;1.13;;;37.30;59.30;;;;;;4955584;28;20114;-86
2023/08/23 08:10:34;;;;;;;2.97;1.08;;;38.40;55.00;;;;;;4962376;28;20034;-85
2023/08/23 08:12:59;;;;;;;3.28;1.20;;;39.40;51.70;;;;;;4959115;28;20042;-82
2023/08/23 08:15:26;;;;;;;2.28;0.93;;;40.10;48.30;;;;;;4966626;28;20027;-86
2023/08/23 08:17:52;;;;;;;4.97;1.38;;;40.90;46.20;;;;;;4965487;28;20102;-84
2023/08/23 08:20:19;;;;;;;3.78;1.27;;;41.40;45.70;;;;;;4967387;28;20378;-85
2023/08/23 08:22:45;;;;;;;4.85;1.35;;;41.60;45.40;;;;;;4967949;28;20086;-83
2023/08/23 08:25:11;;;;;;;4.00;1.10;;;41.90;46.00;;;;;;4963117;28;20042;-84
2023/08/23 08:27:37;;;;;;;3.03;1.17;;;42.40;44.00;;;;;;4621358;28;9999595;-83
2023/08/23 08:30:03;;;;;;;4.72;1.20;;;42.30;41.60;;;;;;4958512;28;20113;-83
2023/08/23 08:32:28;;;;;;;2.67;1.00;;;42.10;44.80;;;;;;4969305;28;20084;-83
2023/08/23 08:34:55;;;;;;;4.35;1.10;;;42.50;42.80;;;;;;4965719;28;20043;-84
2023/08/23 08:37:22;;;;;;;5.15;0.90;;;43.10;40.30;;;;;;4966466;28;20031;-84
2023/08/23 08:39:49;;;;;;;2.47;1.10;;;43.10;39.00;;;;;;4962387;28;20050;-84
2023/08/23 08:42:15;;;;;;;2.65;0.95;;;43.10;40.50;;;;;;4939380;28;20680;-84
2023/08/23 08:44:42;;;;;;;1.90;1.02;;;43.60;39.60;;;;;;4971834;28;20135;-83
2023/08/23 08:47:08;;;;;;;5.30;1.00;;;44.10;38.90;;;;;;4965844;28;20106;-87
2023/08/23 08:49:33;;;;;;;2.30;0.70;;;44.40;37.10;;;;;;4955794;28;20122;-73
2023/08/23 08:52:03;;;;;;;2.83;0.95;;;44.80;36.10;;;;;;4960020;28;20038;-73
2023/08/23 08:54:30;;;;;;;;;;;45.30;33.90;;;;;;4961657;28;20089;-73
2023/08/23 08:56:57;;;;;;;2.67;0.80;;;45.10;35.10;;;;;;4982695;28;19913;-76
2023/08/23 08:59:22;;;;;;;3.10;0.93;;;45.40;36.10;;;;;;4980376;28;20051;-73
2023/08/23 09:01:50;;;;;;;4.72;1.00;;;45.60;34.60;;;;;;4947890;28;20850;-73
2023/08/23 09:04:16;;;;;;;2.20;0.80;;;45.80;35.00;;;;;;4972801;28;20119;-72
2023/08/23 09:06:45;;;;;;;3.58;0.75;;;45.80;34.70;;;;;;4962412;28;20114;-73
2023/08/23 09:09:11;;;;;;;2.35;0.70;;;45.60;34.10;;;;;;4964108;28;20027;-72
2023/08/23 09:11:37;;;;;;;2.78;0.85;;;45.90;33.60;;;;;;4964109;28;20034;-73
2023/08/23 09:14:20;;;;;;;4.38;1.00;;;46.20;31.60;;;;;;4966334;28;20085;-71
2023/08/23 09:16:49;;;;;;;3.60;0.90;;;45.80;31.10;;;;;;4957393;28;20558;-72
2023/08/23 09:19:15;;;;;;;2.03;0.70;;;46.30;32.70;;;;;;4957844;28;20034;-72
2023/08/23 09:21:50;;;;;;;3.20;0.82;;;46.80;32.00;;;;;;4961009;28;20031;-74
2023/08/23 09:24:17;;;;;;;2.88;0.85;;;47.00;29.80;;;;;;4953653;28;20609;-73
2023/08/23 09:26:43;;;;;;;2.17;0.80;;;47.30;33.20;;;;;;4954576;28;20502;-73
2023/08/23 09:29:09;;;;;;;3.45;0.90;;;47.40;30.20;;;;;;4955754;28;20134;-74
2023/08/23 09:31:35;;;;;;;1.85;0.70;;;47.30;31.70;;;;;;4946813;28;20197;-73
2023/08/23 09:34:01;;;;;;;3.25;0.80;;;46.90;30.50;;;;;;4951614;28;20046;-74
2023/08/23 09:36:28;;;;;;;2.92;0.73;;;47.20;30.00;;;;;;4949875;28;20034;-73
2023/08/23 09:38:55;;;;;;;2.63;0.70;;;47.60;29.00;;;;;;4952712;28;20030;-74
2023/08/23 09:41:22;;;;;;;2.72;0.80;;;47.40;30.60;;;;;;4955209;28;20138;-73
2023/08/23 09:43:52;;;;;;;2.92;0.90;;;46.90;32.00;;;;;;4951221;28;20031;-73
2023/08/23 09:46:25;;;;;;;2.67;0.68;;;47.10;29.20;;;;;;4956579;28;20027;-74
2023/08/23 09:48:54;;;;;;;2.78;0.57;;;47.30;31.20;;;;;;4265439;28;10000525;-73
2023/08/23 09:51:24;;;;;;;2.50;0.77;;;47.50;30.70;;;;;;4611118;28;10000007;-73
2023/08/23 09:53:56;;;;;;;2.88;1.00;;;47.90;30.30;;;;;;4616165;28;9999638;-73
2023/08/23 09:56:22;;;;;;;2.70;1.00;;;48.30;29.80;;;;;;4953349;28;20102;-73
2023/08/23 09:58:48;;;;;;;2.92;0.85;;;48.30;30.90;;;;;;4947963;28;20113;-73
2023/08/23 10:01:18;;;;;;;2.50;0.60;;;48.40;30.80;;;;;;4961577;28;20868;-73
2023/08/23 10:03:43;;;;;;;;;;;48.20;29.90;;;;;;4957749;28;20054;-73
2023/08/23 10:06:09;;;;;;;4.03;0.80;;;47.90;29.60;;;;;;4962504;23;19941;-73
2023/08/23 10:08:39;;;;;;;2.50;0.82;;;48.00;29.60;;;;;;4949192;28;20145;-73
2023/08/23 10:11:05;;;;;;;1.75;0.63;;;48.40;29.60;;;;;;4953852;28;20033;-73
2023/08/23 10:13:33;;;;;;;2.80;0.82;;;48.50;29.50;;;;;;4949387;28;20022;-74
2023/08/23 10:16:01;;;;;;;5.05;1.13;;;48.50;30.50;;;;;;4958344;28;20101;-73
2023/08/23 10:18:29;;;;;;;3.90;0.88;;;48.30;31.40;;;;;;4962934;28;20046;-74
2023/08/23 10:20:55;;;;;;;4.87;0.90;;;48.30;29.50;;;;;;4957528;28;20478;-73
2023/08/23 10:23:22;;;;;;;2.72;0.90;;;47.90;30.50;;;;;;4955544;28;20524;-73
2023/08/23 10:25:48;;;;;;;4.47;1.13;;;48.00;28.80;;;;;;4951369;28;20110;-73
2023/08/23 10:28:16;;;;;;;4.20;1.10;;;47.90;30.00;;;;;;4948039;28;20026;-73
2023/08/23 10:30:49;;;;;;;3.40;1.10;;;48.10;29.30;;;;;;4957440;28;20034;-73
2023/08/23 10:33:16;;;;;;;2.63;0.98;;;47.90;30.20;;;;;;4936242;28;20139;-73
2023/08/23 10:35:43;;;;;;;2.95;1.05;;;47.90;29.10;;;;;;4950510;28;20027;-75
2023/08/23 10:38:09;;;;;;;3.25;0.90;;;47.70;28.80;;;;;;4950908;28;20050;-73
2023/08/23 10:40:37;;;;;;;2.67;1.10;;;47.80;31.30;;;;;;4953161;28;20031;-75
2023/08/23 10:43:09;;;;;;;3.40;1.17;;;47.90;29.80;;;;;;4951310;28;20034;-75
2023/08/23 10:46:02;;;;;;;3.80;1.17;;;48.20;29.80;;;;;;4961713;28;20034;-73
2023/08/23 10:48:27;;;;;;;2.75;1.10;;;46.60;31.10;;;;;;4959084;28;20086;-76
2023/08/23 10:50:53;;;;;;;3.05;1.08;;;43.80;30.70;;;;;;4961970;28;20451;-77
2023/08/23 10:53:19;;;;;;;5.68;1.30;;;41.60;34.80;;;;;;4955338;28;20027;-75
2023/08/23 10:55:46;;;;;;;3.65;1.40;;;40.80;36.50;;;;;;4953306;28;20083;-76
2023/08/23 10:58:13;;;;;;;4.97;1.00;;;42.00;34.50;;;;;;4958714;28;20026;-76
2023/08/23 11:00:43;;;;;;;4.78;1.23;;;43.70;34.00;;;;;;4955378;28;20038;-77
2023/08/23 11:03:11;;;;;;;2.78;1.17;;;44.90;34.90;;;;;;4958997;28;20531;-73
2023/08/23 11:05:36;;;;;;;2.42;0.80;;;45.60;32.00;;;;;;4960572;28;20069;-73
2023/08/23 11:08:02;;;;;;;3.10;1.30;;;45.80;31.30;;;;;;4960863;28;20026;-72
2023/08/23 11:10:29;;;;;;;3.25;1.13;;;45.80;31.50;;;;;;4963027;28;20125;-75
2023/08/23 11:44:15;;;;;;;4.32;1.20;;;33.70;43.40;;;;;;5980691;23;20240;31
2023/08/23 11:46:41;;;;;;;3.53;0.93;;;32.60;47.90;;;;;;3849697;29;10001044;-65
2023/08/23 11:49:08;;;;;;;4.00;1.10;;;31.70;49.70;;;;;;4893369;29;20409;-65
2023/08/23 11:51:47;;;;;;;5.00;1.17;;;31.80;51.80;;;;;;4897240;29;20036;-65
2023/08/23 11:54:14;;;;;;;5.18;1.52;;;31.50;49.40;;;;;;4892837;29;20087;-66
2023/08/23 11:56:44;;;;;;;3.33;1.13;;;31.70;50.80;;;;;;4898344;29;20060;-67
2023/08/23 11:59:11;;;;;;;8.05;1.60;;;32.10;52.50;;;;;;4892013;29;20382;-67
2023/08/23 12:01:38;;;;;;;6.43;1.48;;;32.30;57.80;;;;;;4887548;29;20087;-66
2023/08/23 12:04:07;;;;;;;3.90;1.25;;;32.60;51.30;;;;;;4884552;29;20103;-66
2023/08/23 12:06:32;;;;;;;5.03;1.40;;;32.70;50.20;;;;;;4884979;29;20024;-67
2023/08/23 12:08:58;;;;;;;3.65;1.27;;;32.80;55.00;;;;;;4881321;29;20047;-66
2023/08/23 12:11:24;;;;;;;3.22;1.13;;;33.10;53.80;;;;;;4890494;29;20355;-66
2023/08/23 12:13:49;;;;;;;3.25;1.30;;;32.70;50.10;;;;;;4888060;29;20415;-66
2023/08/23 12:16:15;;;;;;;2.58;0.95;;;32.90;49.80;;;;;;4871600;29;20097;-67
2023/08/23 12:18:41;;;;;;;4.07;1.40;;;33.00;53.30;;;;;;4875643;29;20572;-67
2023/08/23 12:21:07;;;;;;;3.53;1.23;;;32.90;53.20;;;;;;4857263;29;20028;-67
2023/08/23 12:23:32;;;;;;;2.67;1.10;;;32.80;54.50;;;;;;4851714;29;20730;-67
2023/08/23 12:25:58;;;;;;;4.15;1.35;;;32.70;53.90;;;;;;4850819;29;20460;-67
2023/08/23 12:28:24;;;;;;;2.83;1.20;;;32.50;54.20;;;;;;4852033;29;20032;-67
2023/08/23 12:30:50;;;;;;;3.78;1.00;;;32.40;51.20;;;;;;4180790;29;10000741;-67
2023/08/23 12:33:15;;;;;;;2.78;1.20;;;32.40;54.50;;;;;;4855276;29;20037;-67
2023/08/23 12:35:41;;;;;;;4.03;1.10;;;32.60;56.40;;;;;;4853246;29;20504;-67
2023/08/23 12:38:07;;;;;;;3.15;1.30;;;32.70;56.80;;;;;;4876989;29;20032;-67
2023/08/23 12:40:33;;;;;;;3.45;1.38;;;32.70;52.40;;;;;;4860570;29;20032;-67
2023/08/23 12:42:59;;;;;;;7.45;1.80;;;32.60;56.80;;;;;;4859122;29;20423;-67
2023/08/23 12:45:24;;;;;;;5.97;1.50;;;32.50;58.40;;;;;;4879595;29;20056;-67
2023/08/23 12:47:50;;;;;;;4.95;1.70;;;32.20;52.20;;;;;;4896153;29;20040;-67
2023/08/23 12:50:16;;;;;;;6.30;1.30;;;32.30;52.30;;;;;;4896587;29;20025;-67
2023/08/23 12:52:41;;;;;;;5.25;1.23;;;31.90;54.10;;;;;;4900763;29;20043;-67
2023/08/23 12:55:08;;;;;;;5.40;1.38;;;31.40;53.10;;;;;;4903022;29;20443;-67
2023/08/23 12:57:33;;;;;;;3.78;1.13;;;31.30;57.50;;;;;;4900423;29;20028;-67
2023/08/23 13:00:00;;;;;;;18.08;5.78;;;31.20;59.00;;;;;;4898963;29;21075;-67
2023/08/23 13:02:25;;;;;;;12.50;3.90;;;31.10;57.10;;;;;;4912312;29;20039;-67
2023/08/23 13:04:51;;;;;;;22.65;8.05;;;31.10;57.20;;;;;;4914059;29;20043;-67
2023/08/23 13:07:17;;;;;;;7.30;1.33;;;30.80;57.80;;;;;;4901148;29;20461;-67
2023/08/23 13:09:42;;;;;;;3.83;1.25;;;30.40;59.30;;;;;;4899066;29;20388;-67
2023/08/23 13:12:08;;;;;;;4.53;1.38;;;30.50;62.10;;;;;;4901863;29;20079;-67
2023/08/23 13:14:34;;;;;;;4.13;1.42;;;30.50;60.70;;;;;;4902484;29;20954;-67